TAF KPHF
KPHF 072321Z 0800/0824 VRB03KT P6SM BKN200 FM081000 VRB03KT P6SM OVC040 FM081300 06004KT 6SM -RA OVC025 FM081600 04005KT 4SM -RA BR OVC010 FM082100 01004KT P6SM OVC020=
METAR KPHF
WC KPHF
WS KPHF
WV KPHF